createdAt,value
2016-12-21T20:54:11.543Z,925.78
2016-12-21T20:54:28.248Z,925.77
2016-12-21T20:54:45.510Z,925.81
2016-12-21T20:55:02.219Z,925.83
2016-12-21T20:55:19.452Z,925.78
2016-12-21T20:55:36.181Z,925.77
2016-12-21T20:55:52.916Z,925.72
2016-12-21T20:56:09.673Z,925.78
2016-12-21T20:56:26.409Z,925.75
2016-12-21T20:56:43.113Z,925.77
2016-12-21T20:56:59.815Z,925.75
2016-12-21T20:57:16.552Z,925.74
2016-12-21T20:57:33.270Z,925.78
2016-12-21T20:57:50.024Z,925.77
2016-12-21T20:58:06.777Z,925.77
2016-12-21T20:58:23.488Z,925.77
2016-12-21T20:58:40.204Z,925.78
2016-12-21T20:58:56.927Z,925.79
2016-12-21T20:59:13.654Z,925.81
2016-12-21T20:59:30.378Z,925.82
2016-12-21T20:59:47.131Z,925.83
2016-12-21T21:00:03.835Z,925.87
2016-12-21T21:00:20.550Z,925.87
2016-12-21T21:00:37.300Z,925.89
2016-12-21T21:00:54.036Z,925.87
2016-12-21T21:01:10.808Z,925.86
2016-12-21T21:01:27.557Z,925.88
2016-12-21T21:01:44.280Z,925.91
2016-12-21T21:02:01.000Z,925.94
2016-12-21T21:02:18.261Z,925.89
2016-12-21T21:02:34.949Z,925.91
2016-12-21T21:02:51.667Z,925.94
2016-12-21T21:03:08.395Z,925.93
2016-12-21T21:03:25.124Z,925.96
2016-12-21T21:03:41.834Z,925.96
2016-12-21T21:03:58.567Z,925.97
2016-12-21T21:04:15.276Z,925.99
2016-12-21T21:04:32.007Z,925.97
2016-12-21T21:04:48.720Z,925.95
2016-12-21T21:05:05.444Z,925.96
2016-12-21T21:05:22.173Z,925.97
2016-12-21T21:05:38.912Z,926
2016-12-21T21:05:55.634Z,925.99
2016-12-21T21:06:12.384Z,925.99
2016-12-21T21:06:29.095Z,925.98
2016-12-21T21:06:45.808Z,925.97
2016-12-21T21:07:02.540Z,925.92
2016-12-21T21:07:19.252Z,925.94
2016-12-21T21:07:35.989Z,925.96
2016-12-21T21:07:52.734Z,925.98
2016-12-21T21:08:09.456Z,925.94
2016-12-21T21:08:26.198Z,925.93
2016-12-21T21:08:42.931Z,925.92
2016-12-21T21:08:59.767Z,925.93
2016-12-21T21:09:16.484Z,925.93
2016-12-21T21:09:33.193Z,925.92
2016-12-21T21:09:49.924Z,925.95
2016-12-21T21:10:06.646Z,925.91
2016-12-21T21:10:23.382Z,925.97
2016-12-21T21:10:40.118Z,925.97
2016-12-21T21:10:56.867Z,925.99
2016-12-21T21:11:13.600Z,925.97
2016-12-21T21:11:30.356Z,925.94
2016-12-21T21:11:47.099Z,925.93
2016-12-21T21:12:03.833Z,926
2016-12-21T21:12:20.552Z,925.96
2016-12-21T21:12:37.279Z,925.93
2016-12-21T21:12:53.990Z,925.97
2016-12-21T21:13:11.251Z,925.94
2016-12-21T21:13:27.985Z,925.96
2016-12-21T21:13:44.719Z,925.93
2016-12-21T21:14:01.431Z,925.99
2016-12-21T21:14:18.146Z,925.96
2016-12-21T21:14:34.879Z,925.96
2016-12-21T21:14:51.609Z,925.99
2016-12-21T21:15:08.320Z,925.99
2016-12-21T21:15:25.040Z,926.03
2016-12-21T21:15:41.783Z,925.99
2016-12-21T21:15:58.517Z,926.03
2016-12-21T21:16:15.224Z,925.97
2016-12-21T21:16:31.971Z,926.02
2016-12-21T21:16:48.706Z,926.05
2016-12-21T21:17:05.425Z,926.06
2016-12-21T21:17:22.169Z,926.03
2016-12-21T21:17:38.902Z,926.05
2016-12-21T21:17:55.665Z,926.06
2016-12-21T21:18:12.415Z,926.05
2016-12-21T21:18:29.171Z,926.06
2016-12-21T21:18:45.895Z,926.06
2016-12-21T21:19:02.624Z,926.08
2016-12-21T21:19:19.341Z,926.08
2016-12-21T21:19:36.068Z,926.09
2016-12-21T21:19:52.816Z,926.09
2016-12-21T21:20:09.563Z,926.07
2016-12-21T21:20:26.297Z,926.04
2016-12-21T21:20:43.056Z,926.11
2016-12-21T21:20:59.801Z,926.07
2016-12-21T21:21:17.047Z,926.12
2016-12-21T21:21:33.783Z,926.12
2016-12-21T21:21:50.522Z,926.14
2016-12-21T21:22:07.240Z,926.14
2016-12-21T21:22:23.967Z,926.14
2016-12-21T21:22:40.673Z,926.13
2016-12-21T21:22:57.390Z,926.13
2016-12-21T21:23:14.111Z,926.14
2016-12-21T21:23:30.852Z,926.14
2016-12-21T21:23:47.553Z,926.18
2016-12-21T21:24:04.400Z,926.15
2016-12-21T21:24:21.133Z,926.15
2016-12-21T21:24:37.820Z,926.18
2016-12-21T21:24:54.562Z,926.18
2016-12-21T21:25:11.305Z,926.19
2016-12-21T21:25:28.013Z,926.2
2016-12-21T21:25:44.749Z,926.26
2016-12-21T21:26:02.015Z,926.23
2016-12-21T21:26:18.724Z,926.21
2016-12-21T21:26:35.455Z,926.21
2016-12-21T21:26:52.164Z,926.21
2016-12-21T21:27:08.899Z,926.21
2016-12-21T21:27:25.613Z,926.24
2016-12-21T21:27:42.357Z,926.19
2016-12-21T21:27:59.090Z,926.27
2016-12-21T21:28:15.833Z,926.26
2016-12-21T21:28:32.572Z,926.25
2016-12-21T21:28:49.292Z,926.24
2016-12-21T21:29:06.040Z,926.25
2016-12-21T21:29:22.778Z,926.2
2016-12-21T21:29:39.512Z,926.26
2016-12-21T21:29:56.302Z,926.22
2016-12-21T21:30:13.015Z,926.25
2016-12-21T21:30:29.763Z,926.26
2016-12-21T21:30:46.490Z,926.21
2016-12-21T21:31:03.200Z,926.22
2016-12-21T21:31:19.935Z,926.21
2016-12-21T21:31:36.675Z,926.23
2016-12-21T21:31:53.390Z,926.22
2016-12-21T21:32:10.121Z,926.22
2016-12-21T21:32:26.860Z,926.19
2016-12-21T21:32:43.578Z,926.23
2016-12-21T21:33:00.279Z,926.21
2016-12-21T21:33:16.992Z,926.18
2016-12-21T21:33:33.760Z,926.18
2016-12-21T21:33:51.008Z,926.18
2016-12-21T21:34:07.842Z,926.22
2016-12-21T21:34:24.590Z,926.19
2016-12-21T21:34:41.316Z,926.16
2016-12-21T21:34:58.026Z,926.22
2016-12-21T21:35:14.754Z,926.24
2016-12-21T21:35:31.524Z,926.27
2016-12-21T21:35:48.272Z,926.23
2016-12-21T21:36:05.516Z,926.26
2016-12-21T21:36:22.251Z,926.26
2016-12-21T21:36:38.971Z,926.23
2016-12-21T21:36:55.688Z,926.27
2016-12-21T21:37:12.436Z,926.25
2016-12-21T21:37:29.146Z,926.31
2016-12-21T21:37:45.865Z,926.27
2016-12-21T21:38:02.567Z,926.27
2016-12-21T21:38:19.274Z,926.24
2016-12-21T21:38:35.994Z,926.27
2016-12-21T21:38:52.715Z,926.28
2016-12-21T21:39:09.682Z,926.27
2016-12-21T21:39:26.425Z,926.26
2016-12-21T21:39:43.165Z,926.29
2016-12-21T21:40:00.405Z,926.29
2016-12-21T21:40:17.095Z,926.25
2016-12-21T21:40:33.810Z,926.26
2016-12-21T21:40:50.530Z,926.29
2016-12-21T21:41:07.237Z,926.3
2016-12-21T21:41:23.973Z,926.28
2016-12-21T21:41:40.743Z,926.27
2016-12-21T21:41:57.480Z,926.27
2016-12-21T21:42:14.219Z,926.25
2016-12-21T21:42:30.928Z,926.29
2016-12-21T21:42:47.657Z,926.31
2016-12-21T21:43:04.360Z,926.25
2016-12-21T21:43:21.076Z,926.29
2016-12-21T21:43:37.852Z,926.29
2016-12-21T21:43:55.114Z,926.28
2016-12-21T21:44:11.838Z,926.27
2016-12-21T21:44:29.082Z,926.24
2016-12-21T21:44:45.817Z,926.22
2016-12-21T21:45:02.558Z,926.25
2016-12-21T21:45:19.273Z,926.29
2016-12-21T21:45:36.027Z,926.3
2016-12-21T21:45:52.761Z,926.27
2016-12-21T21:46:09.504Z,926.26
2016-12-21T21:46:26.232Z,926.26
2016-12-21T21:46:42.939Z,926.29
2016-12-21T21:46:59.678Z,926.24
2016-12-21T21:47:16.398Z,926.27
2016-12-21T21:47:33.138Z,926.24
2016-12-21T21:47:49.848Z,926.25
2016-12-21T21:48:06.580Z,926.28
2016-12-21T21:48:23.319Z,926.3
2016-12-21T21:48:40.038Z,926.28
2016-12-21T21:48:56.773Z,926.3
2016-12-21T21:49:13.482Z,926.28
2016-12-21T21:49:30.212Z,926.29
2016-12-21T21:49:46.945Z,926.31
2016-12-21T21:50:04.171Z,926.29
2016-12-21T21:50:21.401Z,926.31
2016-12-21T21:50:38.111Z,926.33
2016-12-21T21:50:54.860Z,926.34
2016-12-21T21:51:11.586Z,926.3
2016-12-21T21:51:28.310Z,926.29
2016-12-21T21:51:45.037Z,926.3
2016-12-21T21:52:01.776Z,926.34
2016-12-21T21:52:18.531Z,926.28
2016-12-21T21:52:35.277Z,926.3
2016-12-21T21:52:52.038Z,926.28
2016-12-21T21:53:08.750Z,926.27
2016-12-21T21:53:25.492Z,926.26
2016-12-21T21:53:42.228Z,926.29
2016-12-21T21:53:58.975Z,926.26
2016-12-21T21:54:15.808Z,926.22
2016-12-21T21:54:32.521Z,926.28
2016-12-21T21:54:49.226Z,926.27
2016-12-21T21:55:05.953Z,926.28
2016-12-21T21:55:22.678Z,926.28
2016-12-21T21:55:39.402Z,926.27
2016-12-21T21:55:56.107Z,926.27
2016-12-21T21:56:12.826Z,926.25
2016-12-21T21:56:29.563Z,926.26
2016-12-21T21:56:46.279Z,926.26
2016-12-21T21:57:02.994Z,926.24
2016-12-21T21:57:19.742Z,926.26
2016-12-21T21:57:36.969Z,926.28
2016-12-21T21:57:53.698Z,926.29
2016-12-21T21:58:10.617Z,926.27
2016-12-21T21:58:27.333Z,926.29
2016-12-21T21:58:44.066Z,926.33
2016-12-21T21:59:00.783Z,926.28
2016-12-21T21:59:18.087Z,926.3
2016-12-21T21:59:34.844Z,926.29
2016-12-21T21:59:51.592Z,926.31
2016-12-21T22:00:08.334Z,926.33
2016-12-21T22:00:25.078Z,926.33
2016-12-21T22:00:41.797Z,926.33
2016-12-21T22:00:58.536Z,926.3
2016-12-21T22:01:15.281Z,926.31
2016-12-21T22:01:32.017Z,926.32
2016-12-21T22:01:48.744Z,926.34
2016-12-21T22:02:05.482Z,926.32
2016-12-21T22:02:22.207Z,926.34
2016-12-21T22:02:38.926Z,926.32
2016-12-21T22:02:55.618Z,926.35
2016-12-21T22:03:12.327Z,926.31
2016-12-21T22:03:29.034Z,926.31
2016-12-21T22:03:45.761Z,926.31
2016-12-21T22:04:02.992Z,926.31
2016-12-21T22:04:19.815Z,926.31
2016-12-21T22:04:36.567Z,926.36
2016-12-21T22:04:53.314Z,926.34
2016-12-21T22:05:10.030Z,926.38
2016-12-21T22:05:26.734Z,926.39
2016-12-21T22:05:43.476Z,926.38
2016-12-21T22:06:00.169Z,926.38
2016-12-21T22:06:16.893Z,926.39
2016-12-21T22:06:33.600Z,926.38
2016-12-21T22:06:50.329Z,926.38
2016-12-21T22:07:07.057Z,926.37
2016-12-21T22:07:23.757Z,926.36
2016-12-21T22:07:40.487Z,926.42
2016-12-21T22:07:57.242Z,926.35
2016-12-21T22:08:14.521Z,926.37
2016-12-21T22:08:31.262Z,926.36
2016-12-21T22:08:48.014Z,926.37
2016-12-21T22:09:04.716Z,926.35
2016-12-21T22:09:21.557Z,926.41
2016-12-21T22:09:38.256Z,926.38
2016-12-21T22:09:54.980Z,926.41
2016-12-21T22:10:11.695Z,926.43
2016-12-21T22:10:28.414Z,926.44
2016-12-21T22:10:45.156Z,926.37
2016-12-21T22:11:01.913Z,926.4
2016-12-21T22:11:18.657Z,926.4
2016-12-21T22:11:35.391Z,926.38
2016-12-21T22:11:52.126Z,926.38
2016-12-21T22:12:08.897Z,926.39
2016-12-21T22:12:25.612Z,926.37
2016-12-21T22:12:42.354Z,926.35
2016-12-21T22:12:59.103Z,926.39
2016-12-21T22:13:16.351Z,926.38
2016-12-21T22:13:33.077Z,926.38
2016-12-21T22:13:49.802Z,926.38
2016-12-21T22:14:06.563Z,926.39
2016-12-21T22:14:23.292Z,926.39
2016-12-21T22:14:40.004Z,926.38
2016-12-21T22:14:56.748Z,926.36
2016-12-21T22:15:13.451Z,926.4
2016-12-21T22:15:30.199Z,926.41
2016-12-21T22:15:46.957Z,926.4
2016-12-21T22:16:03.667Z,926.38
2016-12-21T22:16:20.405Z,926.38
2016-12-21T22:16:37.170Z,926.4
2016-12-21T22:16:53.941Z,926.38
2016-12-21T22:17:10.742Z,926.41
2016-12-21T22:17:27.470Z,926.41
2016-12-21T22:17:44.201Z,926.4
2016-12-21T22:18:01.018Z,926.41
2016-12-21T22:18:17.801Z,926.42
2016-12-21T22:18:34.537Z,926.4
2016-12-21T22:18:51.275Z,926.38
2016-12-21T22:19:08.010Z,926.42
2016-12-21T22:19:24.745Z,926.39
2016-12-21T22:19:41.474Z,926.43
2016-12-21T22:19:58.216Z,926.44
2016-12-21T22:20:14.974Z,926.43
2016-12-21T22:20:32.242Z,926.38
2016-12-21T22:20:48.991Z,926.41
2016-12-21T22:21:05.709Z,926.41
2016-12-21T22:21:22.428Z,926.42
2016-12-21T22:21:39.657Z,926.4
2016-12-21T22:21:56.481Z,926.42
2016-12-21T22:22:13.187Z,926.45
2016-12-21T22:22:29.915Z,926.38
2016-12-21T22:22:46.666Z,926.44
2016-12-21T22:23:03.405Z,926.41
2016-12-21T22:23:20.155Z,926.42
2016-12-21T22:23:36.918Z,926.41
2016-12-21T22:23:53.634Z,926.46
2016-12-21T22:24:11.068Z,926.43
2016-12-21T22:24:27.937Z,926.4
2016-12-21T22:24:44.648Z,926.39
2016-12-21T22:25:01.373Z,926.45
2016-12-21T22:25:18.114Z,926.41
2016-12-21T22:25:35.050Z,926.39
2016-12-21T22:25:52.251Z,926.41
2016-12-21T22:26:09.109Z,926.43
2016-12-21T22:26:25.822Z,926.4
2016-12-21T22:26:43.066Z,926.41
2016-12-21T22:26:59.763Z,926.4
2016-12-21T22:27:16.514Z,926.39
2016-12-21T22:27:33.239Z,926.39
2016-12-21T22:27:49.975Z,926.41
2016-12-21T22:28:06.728Z,926.36
2016-12-21T22:28:23.480Z,926.35
2016-12-21T22:28:40.198Z,926.38
2016-12-21T22:28:56.933Z,926.42
2016-12-21T22:29:13.662Z,926.4
2016-12-21T22:29:30.382Z,926.38
2016-12-21T22:29:47.134Z,926.41
2016-12-21T22:30:03.838Z,926.4
2016-12-21T22:30:20.546Z,926.41
2016-12-21T22:30:37.296Z,926.43
2016-12-21T22:30:54.041Z,926.41
2016-12-21T22:31:10.751Z,926.38
2016-12-21T22:31:27.479Z,926.34
2016-12-21T22:31:44.216Z,926.42
2016-12-21T22:32:00.936Z,926.41
2016-12-21T22:32:17.627Z,926.38
2016-12-21T22:32:34.362Z,926.4
2016-12-21T22:32:51.108Z,926.41
2016-12-21T22:33:07.853Z,926.44
2016-12-21T22:33:24.556Z,926.41
2016-12-21T22:33:41.285Z,926.37
2016-12-21T22:33:58.028Z,926.39
2016-12-21T22:34:14.751Z,926.41
2016-12-21T22:34:31.606Z,926.42
2016-12-21T22:34:48.318Z,926.44
2016-12-21T22:35:05.123Z,926.37
2016-12-21T22:35:21.912Z,926.39
2016-12-21T22:35:38.665Z,926.41
2016-12-21T22:35:55.420Z,926.43
2016-12-21T22:36:12.142Z,926.4
2016-12-21T22:36:28.846Z,926.4
2016-12-21T22:36:45.595Z,926.4
2016-12-21T22:37:02.335Z,926.43
2016-12-21T22:37:19.157Z,926.44
2016-12-21T22:37:35.891Z,926.38
2016-12-21T22:37:52.656Z,926.39
2016-12-21T22:38:09.420Z,926.4
2016-12-21T22:38:26.175Z,926.42
2016-12-21T22:38:42.896Z,926.44
2016-12-21T22:38:59.625Z,926.36
2016-12-21T22:39:16.369Z,926.41
2016-12-21T22:39:33.213Z,926.45
2016-12-21T22:39:49.943Z,926.46
2016-12-21T22:40:06.655Z,926.4
2016-12-21T22:40:23.359Z,926.42
2016-12-21T22:40:40.581Z,926.44
2016-12-21T22:40:57.291Z,926.44
2016-12-21T22:41:14.036Z,926.43
2016-12-21T22:41:30.750Z,926.38
2016-12-21T22:41:47.523Z,926.38
2016-12-21T22:42:04.238Z,926.42
2016-12-21T22:42:20.971Z,926.4
2016-12-21T22:42:37.737Z,926.44
2016-12-21T22:42:54.443Z,926.39
2016-12-21T22:43:11.171Z,926.43
2016-12-21T22:43:27.903Z,926.44
2016-12-21T22:43:44.631Z,926.44
2016-12-21T22:44:01.363Z,926.45
2016-12-21T22:44:18.110Z,926.44
2016-12-21T22:44:35.387Z,926.43
2016-12-21T22:44:52.142Z,926.46
2016-12-21T22:45:08.945Z,926.45
2016-12-21T22:45:25.689Z,926.5
2016-12-21T22:45:42.441Z,926.46
2016-12-21T22:45:59.162Z,926.5
2016-12-21T22:46:15.880Z,926.49
2016-12-21T22:46:32.584Z,926.47
2016-12-21T22:46:49.351Z,926.49
2016-12-21T22:47:06.116Z,926.47
2016-12-21T22:47:22.826Z,926.47
2016-12-21T22:47:39.600Z,926.46
2016-12-21T22:47:56.566Z,926.49
2016-12-21T22:48:13.375Z,926.53
2016-12-21T22:48:30.634Z,926.55
2016-12-21T22:48:47.410Z,926.55
2016-12-21T22:49:04.177Z,926.55
2016-12-21T22:49:20.917Z,926.55
2016-12-21T22:49:37.668Z,926.57
2016-12-21T22:49:54.382Z,926.56
2016-12-21T22:50:11.086Z,926.55
2016-12-21T22:50:27.851Z,926.56
2016-12-21T22:50:44.565Z,926.57
2016-12-21T22:51:01.289Z,926.57
2016-12-21T22:51:18.038Z,926.58
2016-12-21T22:51:34.777Z,926.55
2016-12-21T22:51:51.526Z,926.54
2016-12-21T22:52:08.282Z,926.56
2016-12-21T22:52:25.029Z,926.52
2016-12-21T22:52:41.830Z,926.55
2016-12-21T22:52:59.132Z,926.56
2016-12-21T22:53:15.858Z,926.53
2016-12-21T22:53:32.556Z,926.52
2016-12-21T22:53:49.329Z,926.49
2016-12-21T22:54:06.579Z,926.52
2016-12-21T22:54:23.304Z,926.53
2016-12-21T22:54:40.139Z,926.54
2016-12-21T22:54:56.882Z,926.52
2016-12-21T22:55:14.127Z,926.51
2016-12-21T22:55:30.825Z,926.52
2016-12-21T22:55:47.554Z,926.53
2016-12-21T22:56:04.257Z,926.51
2016-12-21T22:56:20.978Z,926.53
2016-12-21T22:56:37.678Z,926.52
2016-12-21T22:56:54.421Z,926.48
2016-12-21T22:57:11.149Z,926.52
2016-12-21T22:57:27.890Z,926.53
2016-12-21T22:57:44.626Z,926.55
2016-12-21T22:58:01.352Z,926.54
2016-12-21T22:58:18.058Z,926.55
2016-12-21T22:58:34.793Z,926.59
2016-12-21T22:58:51.497Z,926.55
2016-12-21T22:59:08.211Z,926.55
2016-12-21T22:59:24.918Z,926.55
2016-12-21T22:59:41.627Z,926.53
2016-12-21T22:59:58.321Z,926.55
2016-12-21T23:00:15.068Z,926.54
2016-12-21T23:00:31.768Z,926.54
2016-12-21T23:00:48.506Z,926.52
2016-12-21T23:01:05.215Z,926.52
2016-12-21T23:01:21.919Z,926.54
2016-12-21T23:01:38.628Z,926.55
2016-12-21T23:01:55.333Z,926.61
2016-12-21T23:02:12.041Z,926.57
2016-12-21T23:02:28.758Z,926.61
2016-12-21T23:02:45.487Z,926.58
2016-12-21T23:03:02.192Z,926.57
2016-12-21T23:03:18.911Z,926.58
2016-12-21T23:03:35.632Z,926.58
2016-12-21T23:03:52.364Z,926.59
2016-12-21T23:04:09.109Z,926.59
2016-12-21T23:04:25.863Z,926.63
2016-12-21T23:04:42.685Z,926.62
2016-12-21T23:04:59.395Z,926.64
2016-12-21T23:05:16.097Z,926.64
2016-12-21T23:05:32.832Z,926.62
2016-12-21T23:05:49.541Z,926.63
2016-12-21T23:06:06.274Z,926.65
2016-12-21T23:06:23.043Z,926.65
2016-12-21T23:06:39.762Z,926.64
2016-12-21T23:06:56.475Z,926.66
2016-12-21T23:07:13.194Z,926.63
2016-12-21T23:07:29.935Z,926.67
2016-12-21T23:07:46.635Z,926.65
2016-12-21T23:08:03.356Z,926.64
2016-12-21T23:08:20.078Z,926.64
2016-12-21T23:08:36.794Z,926.63
2016-12-21T23:08:53.549Z,926.64
2016-12-21T23:09:10.255Z,926.64
2016-12-21T23:09:26.976Z,926.63
2016-12-21T23:09:43.951Z,926.65
2016-12-21T23:10:00.676Z,926.64
2016-12-21T23:10:17.418Z,926.63
2016-12-21T23:10:34.163Z,926.63
2016-12-21T23:10:50.916Z,926.63
2016-12-21T23:11:07.642Z,926.62
2016-12-21T23:11:24.453Z,926.61
2016-12-21T23:11:41.440Z,926.6
2016-12-21T23:11:58.185Z,926.61
2016-12-21T23:12:14.895Z,926.58
2016-12-21T23:12:31.609Z,926.61
2016-12-21T23:12:48.348Z,926.59
2016-12-21T23:13:05.077Z,926.59
2016-12-21T23:13:21.820Z,926.6
2016-12-21T23:13:38.547Z,926.6
2016-12-21T23:13:55.281Z,926.61
2016-12-21T23:14:12.026Z,926.64
2016-12-21T23:14:28.752Z,926.66
2016-12-21T23:14:45.475Z,926.66
2016-12-21T23:15:02.180Z,926.66
2016-12-21T23:15:18.900Z,926.65
2016-12-21T23:15:35.659Z,926.67
2016-12-21T23:15:52.880Z,926.67
2016-12-21T23:16:09.594Z,926.69
2016-12-21T23:16:26.837Z,926.7
2016-12-21T23:16:43.525Z,926.65
2016-12-21T23:17:00.261Z,926.65
2016-12-21T23:17:16.990Z,926.67
2016-12-21T23:17:33.712Z,926.7
2016-12-21T23:17:50.430Z,926.7
2016-12-21T23:18:07.142Z,926.7
2016-12-21T23:18:23.849Z,926.71
2016-12-21T23:18:40.586Z,926.72
2016-12-21T23:18:57.312Z,926.71
2016-12-21T23:19:14.011Z,926.74
2016-12-21T23:19:30.723Z,926.7
2016-12-21T23:19:47.475Z,926.71
2016-12-21T23:20:04.173Z,926.73
2016-12-21T23:20:20.917Z,926.72
2016-12-21T23:20:37.621Z,926.71
2016-12-21T23:20:54.873Z,926.73
2016-12-21T23:21:11.606Z,926.74
2016-12-21T23:21:28.844Z,926.72
2016-12-21T23:21:45.537Z,926.68
2016-12-21T23:22:02.265Z,926.72
2016-12-21T23:22:18.989Z,926.75
2016-12-21T23:22:35.700Z,926.73
2016-12-21T23:22:52.417Z,926.73
2016-12-21T23:23:09.130Z,926.74
2016-12-21T23:23:25.842Z,926.76
2016-12-21T23:23:42.560Z,926.72
2016-12-21T23:23:59.269Z,926.76
2016-12-21T23:24:16.001Z,926.74
2016-12-21T23:24:32.716Z,926.77
2016-12-21T23:24:49.554Z,926.76
2016-12-21T23:25:06.271Z,926.76
2016-12-21T23:25:22.986Z,926.75
2016-12-21T23:25:39.728Z,926.76
2016-12-21T23:25:56.450Z,926.75
2016-12-21T23:26:13.709Z,926.75
2016-12-21T23:26:30.441Z,926.81
2016-12-21T23:26:47.138Z,926.77
2016-12-21T23:27:03.846Z,926.77
2016-12-21T23:27:20.606Z,926.8
2016-12-21T23:27:37.843Z,926.81
2016-12-21T23:27:54.607Z,926.78
2016-12-21T23:28:11.340Z,926.79
2016-12-21T23:28:28.084Z,926.76
2016-12-21T23:28:44.869Z,926.79
2016-12-21T23:29:01.591Z,926.81
2016-12-21T23:29:18.323Z,926.79
2016-12-21T23:29:35.058Z,926.78
2016-12-21T23:29:51.798Z,926.84
2016-12-21T23:30:08.514Z,926.79
2016-12-21T23:30:25.223Z,926.81
2016-12-21T23:30:41.975Z,926.83
2016-12-21T23:30:58.727Z,926.83
2016-12-21T23:31:15.440Z,926.81
2016-12-21T23:31:32.185Z,926.82
2016-12-21T23:31:48.934Z,926.85
2016-12-21T23:32:05.648Z,926.84
2016-12-21T23:32:22.386Z,926.83
2016-12-21T23:32:39.116Z,926.82
2016-12-21T23:32:55.865Z,926.84
2016-12-21T23:33:12.573Z,926.87
2016-12-21T23:33:29.287Z,926.87
2016-12-21T23:33:46.007Z,926.85
2016-12-21T23:34:02.737Z,926.86
2016-12-21T23:34:19.473Z,926.89
2016-12-21T23:34:36.189Z,926.9
2016-12-21T23:34:53.031Z,926.88
2016-12-21T23:35:09.738Z,926.86
2016-12-21T23:35:26.469Z,926.89
2016-12-21T23:35:43.235Z,926.89
2016-12-21T23:35:59.983Z,926.92
2016-12-21T23:36:16.712Z,926.91
2016-12-21T23:36:33.432Z,926.93
2016-12-21T23:36:50.161Z,926.93
2016-12-21T23:37:06.859Z,926.94
2016-12-21T23:37:24.111Z,926.92
2016-12-21T23:37:40.854Z,926.95
2016-12-21T23:37:57.581Z,926.97
2016-12-21T23:38:14.310Z,926.96
2016-12-21T23:38:31.017Z,926.95
2016-12-21T23:38:47.728Z,926.98
2016-12-21T23:39:04.467Z,926.98
2016-12-21T23:39:21.183Z,927.01
2016-12-21T23:39:37.941Z,927.01
2016-12-21T23:39:54.898Z,927.01
2016-12-21T23:40:11.638Z,927.05
2016-12-21T23:40:28.361Z,927.01
2016-12-21T23:40:45.089Z,927
2016-12-21T23:41:01.843Z,927.02
2016-12-21T23:41:18.548Z,927.05
2016-12-21T23:41:35.288Z,927.02
2016-12-21T23:41:52.041Z,927.02
2016-12-21T23:42:08.753Z,927.02
2016-12-21T23:42:25.521Z,927.04
2016-12-21T23:42:42.252Z,927.03
2016-12-21T23:42:58.981Z,927.03
2016-12-21T23:43:15.723Z,927.05
2016-12-21T23:43:32.428Z,927.05
2016-12-21T23:43:49.145Z,927.07
2016-12-21T23:44:05.880Z,927.06
2016-12-21T23:44:22.614Z,927.03
2016-12-21T23:44:39.331Z,927.06
2016-12-21T23:44:56.063Z,927.04
2016-12-21T23:45:12.803Z,927.04
2016-12-21T23:45:29.501Z,927.07
2016-12-21T23:45:46.237Z,927.07
2016-12-21T23:46:02.968Z,927.1
2016-12-21T23:46:19.681Z,927.05
2016-12-21T23:46:36.394Z,927.07
2016-12-21T23:46:53.095Z,927.03
2016-12-21T23:47:09.807Z,927.06
2016-12-21T23:47:26.543Z,927.08
2016-12-21T23:47:43.270Z,927.04
2016-12-21T23:47:59.991Z,927.06
2016-12-21T23:48:16.701Z,927.05
2016-12-21T23:48:33.417Z,927.07
2016-12-21T23:48:50.145Z,927.06
2016-12-21T23:49:06.856Z,927.03
2016-12-21T23:49:23.599Z,927.06
2016-12-21T23:49:40.339Z,927.07
2016-12-21T23:49:57.077Z,927.11
2016-12-21T23:50:13.816Z,927.08
2016-12-21T23:50:30.537Z,927.13
2016-12-21T23:50:47.237Z,927.13
2016-12-21T23:51:03.995Z,927.1
2016-12-21T23:51:21.226Z,927.14
2016-12-21T23:51:37.930Z,927.13
2016-12-21T23:51:54.675Z,927.1
2016-12-21T23:52:11.376Z,927.13
2016-12-21T23:52:28.073Z,927.14
2016-12-21T23:52:44.816Z,927.11
2016-12-21T23:53:01.527Z,927.12
2016-12-21T23:53:18.298Z,927.13
2016-12-21T23:53:35.043Z,927.17
2016-12-21T23:53:52.301Z,927.18
2016-12-21T23:54:09.061Z,927.18
2016-12-21T23:54:25.796Z,927.18
2016-12-21T23:54:42.519Z,927.19
2016-12-21T23:54:59.850Z,927.18
2016-12-21T23:55:16.576Z,927.19
2016-12-21T23:55:33.308Z,927.24
2016-12-21T23:55:50.095Z,927.2
2016-12-21T23:56:06.804Z,927.21
2016-12-21T23:56:23.514Z,927.24
2016-12-21T23:56:40.240Z,927.23
2016-12-21T23:56:56.963Z,927.22
2016-12-21T23:57:13.729Z,927.22
2016-12-21T23:57:30.474Z,927.25
2016-12-21T23:57:47.197Z,927.22
2016-12-21T23:58:03.917Z,927.25
2016-12-21T23:58:20.630Z,927.26
2016-12-21T23:58:37.354Z,927.27
2016-12-21T23:58:54.567Z,927.25
2016-12-21T23:59:11.346Z,927.29
2016-12-21T23:59:28.079Z,927.28
2016-12-21T23:59:44.809Z,927.24
